createdAt,value
2022-11-10T00:03:17.109Z,92.30
2022-11-10T00:06:52.156Z,91.70
2022-11-10T00:10:27.401Z,89.45
2022-11-10T00:14:24.897Z,90.38
2022-11-10T00:17:58.814Z,89.63
2022-11-10T00:21:32.780Z,87.03
2022-11-10T00:25:06.811Z,89.48
2022-11-10T00:28:44.412Z,88.10
2022-11-10T00:32:18.737Z,84.23
2022-11-10T00:35:52.822Z,87.00
2022-11-10T00:39:26.850Z,87.98
2022-11-10T00:43:00.599Z,79.58
2022-11-10T00:46:34.333Z,81.80
2022-11-10T00:50:08.249Z,84.08
2022-11-10T00:53:42.832Z,78.63
2022-11-10T00:57:16.927Z,75.85
2022-11-10T01:00:51.682Z,73.88
2022-11-10T01:04:26.014Z,75.95
2022-11-10T01:08:02.747Z,70.28
2022-11-10T01:11:37.666Z,70.05
2022-11-10T01:15:12.991Z,70.80
2022-11-10T01:18:49.593Z,68.38
2022-11-10T01:22:23.780Z,64.23
2022-11-10T01:25:57.711Z,69.90
2022-11-10T01:29:32.078Z,68.78
2022-11-10T01:33:08.576Z,65.40
2022-11-10T01:36:42.520Z,72.83
2022-11-10T01:40:20.399Z,65.48
2022-11-10T01:43:54.523Z,67.93
2022-11-10T01:47:28.516Z,70.95
2022-11-10T01:51:05.095Z,61.10
2022-11-10T01:54:42.939Z,67.53
2022-11-10T01:58:17.708Z,54.58
2022-11-10T02:01:54.346Z,61.40
2022-11-10T02:05:30.442Z,59.78
2022-11-10T02:09:05.785Z,57.93
2022-11-10T02:12:43.597Z,56.05
2022-11-10T02:16:19.051Z,58.30
2022-11-10T02:19:53.336Z,60.45
2022-11-10T02:23:54.250Z,61.85
2022-11-10T02:27:28.204Z,54.18
2022-11-10T02:31:03.368Z,55.63
2022-11-10T02:34:37.252Z,60.78
2022-11-10T02:38:11.303Z,62.40
2022-11-10T02:41:45.126Z,60.75
2022-11-10T02:45:20.092Z,63.45
2022-11-10T02:48:54.131Z,67.68
2022-11-10T02:52:28.366Z,59.00
2022-11-10T02:56:02.205Z,64.23
2022-11-10T02:59:39.226Z,64.53
2022-11-10T03:03:13.145Z,65.23
2022-11-10T03:06:47.354Z,65.25
2022-11-10T03:10:21.986Z,61.65
2022-11-10T03:17:38.428Z,62.73
2022-11-10T03:21:12.643Z,61.70
2022-11-10T03:24:46.863Z,62.93
2022-11-10T03:28:21.331Z,62.03
2022-11-10T03:31:58.166Z,56.00
2022-11-10T03:35:32.188Z,61.43
2022-11-10T03:39:06.417Z,63.03
2022-11-10T03:42:41.089Z,60.65
2022-11-10T03:46:15.571Z,62.40
2022-11-10T03:49:49.594Z,59.35
2022-11-10T03:53:23.682Z,54.83
2022-11-10T04:00:19.049Z,55.50
2022-11-10T04:03:52.912Z,60.10
2022-11-10T04:07:55.252Z,56.35
2022-11-10T04:11:43.594Z,57.48
2022-11-10T04:15:32.796Z,57.58
2022-11-10T04:19:06.983Z,55.90
2022-11-10T04:22:55.384Z,56.35
2022-11-10T04:29:45.729Z,54.10
2022-11-10T04:33:20.016Z,56.18
2022-11-10T04:36:54.220Z,59.70
2022-11-10T04:40:29.050Z,59.95
2022-11-10T04:44:29.907Z,57.78
2022-11-10T04:48:03.935Z,62.20
2022-11-10T04:51:41.488Z,64.53
2022-11-10T04:55:17.108Z,62.08
2022-11-10T05:02:06.704Z,57.40
2022-11-10T05:05:42.541Z,56.45
2022-11-10T05:09:18.545Z,57.03
2022-11-10T05:12:52.751Z,56.10
2022-11-10T05:16:27.873Z,55.25
2022-11-10T05:20:01.960Z,51.05
2022-11-10T05:23:47.317Z,52.83
2022-11-10T05:27:21.553Z,54.13
2022-11-10T05:30:55.877Z,55.23
2022-11-10T05:34:30.166Z,54.48
2022-11-10T05:38:03.965Z,59.15
2022-11-10T05:41:37.981Z,54.80
2022-11-10T05:45:13.640Z,61.10
2022-11-10T05:48:47.588Z,56.10
2022-11-10T05:52:22.064Z,54.53
2022-11-10T05:55:56.243Z,55.08
2022-11-10T05:59:30.422Z,54.00
2022-11-10T06:03:09.958Z,55.43
2022-11-10T06:06:44.373Z,58.98
2022-11-10T06:10:19.607Z,55.25
2022-11-10T06:13:53.876Z,55.35
2022-11-10T06:17:27.896Z,54.60
2022-11-10T06:21:02.139Z,56.13
2022-11-10T06:24:40.226Z,51.40
2022-11-10T06:28:15.883Z,50.88
2022-11-10T06:31:50.041Z,48.38
2022-11-10T06:35:25.112Z,48.88
2022-11-10T06:38:59.810Z,49.80
2022-11-10T06:42:34.194Z,49.68
2022-11-10T06:46:08.696Z,50.45
2022-11-10T06:49:44.390Z,50.18
2022-11-10T06:53:23.015Z,52.68
2022-11-10T06:56:55.055Z,52.93
2022-11-10T07:00:30.623Z,52.20
2022-11-10T07:04:19.331Z,46.98
2022-11-10T07:07:42.119Z,48.90
2022-11-10T07:11:16.539Z,46.83
2022-11-10T07:14:52.695Z,45.05
2022-11-10T07:18:27.336Z,49.10
2022-11-10T07:22:02.662Z,47.75
2022-11-10T07:25:42.173Z,49.73
2022-11-10T07:29:16.376Z,50.68
2022-11-10T07:32:51.159Z,49.43
2022-11-10T07:36:29.673Z,50.85
2022-11-10T07:40:04.119Z,49.75
2022-11-10T07:43:39.387Z,53.28
2022-11-10T07:47:13.519Z,56.80
2022-11-10T07:50:47.684Z,64.88
2022-11-10T07:54:24.508Z,61.10
2022-11-10T07:57:58.441Z,63.10
2022-11-10T08:01:37.105Z,73.03
2022-11-10T08:05:13.329Z,77.03
2022-11-10T08:08:47.458Z,76.85
2022-11-10T08:12:22.908Z,195.13
2022-11-10T08:15:59.848Z,82.78
2022-11-10T08:19:34.204Z,71.95
2022-11-10T08:23:10.257Z,67.90
2022-11-10T08:26:44.585Z,71.40
2022-11-10T08:30:20.781Z,72.55
2022-11-10T08:33:55.433Z,70.80
2022-11-10T08:37:33.158Z,79.13
2022-11-10T08:41:07.343Z,70.30
2022-11-10T08:44:41.399Z,74.18
2022-11-10T08:48:19.160Z,71.33
2022-11-10T08:51:53.208Z,65.23
2022-11-10T08:55:27.836Z,73.83
2022-11-10T08:59:02.232Z,67.88
2022-11-10T09:02:36.266Z,68.33
2022-11-10T09:06:10.674Z,66.93
2022-11-10T09:09:56.988Z,65.10
2022-11-10T09:13:29.038Z,65.40
2022-11-10T09:16:59.716Z,64.58
2022-11-10T09:20:37.835Z,63.43
2022-11-10T09:24:13.368Z,72.75
2022-11-10T09:27:48.015Z,64.38
2022-11-10T09:31:22.483Z,69.33
2022-11-10T09:34:57.047Z,77.13
2022-11-10T09:38:31.995Z,74.65
2022-11-10T09:42:06.158Z,72.50
2022-11-10T09:45:43.740Z,73.55
2022-11-10T09:49:26.780Z,74.50
2022-11-10T09:53:02.174Z,70.88
2022-11-10T09:56:42.261Z,76.53
2022-11-10T10:00:24.080Z,77.93
2022-11-10T10:04:03.801Z,69.38
2022-11-10T10:07:43.889Z,76.08
2022-11-10T10:16:46.505Z,78.28
2022-11-10T10:20:25.612Z,77.43
2022-11-10T10:24:15.268Z,86.63
2022-11-10T10:27:45.703Z,86.15
2022-11-10T10:31:27.002Z,84.48
2022-11-10T10:35:01.195Z,82.20
2022-11-10T10:38:39.497Z,77.40
2022-11-10T10:48:50.443Z,67.75
2022-11-10T10:52:26.046Z,59.60
2022-11-10T10:56:07.670Z,59.85
2022-11-10T10:59:42.222Z,61.20
2022-11-10T11:03:22.892Z,53.38
2022-11-10T11:07:06.155Z,53.18
2022-11-10T11:10:43.988Z,49.03
2022-11-10T11:14:29.908Z,48.13
2022-11-10T11:18:16.805Z,50.18
2022-11-10T11:22:09.855Z,48.58
2022-11-10T11:25:48.120Z,46.95
2022-11-10T11:29:36.026Z,47.33
2022-11-10T11:33:44.962Z,48.43
2022-11-10T11:37:24.487Z,46.55
2022-11-10T11:41:05.528Z,46.88
2022-11-10T11:45:00.035Z,46.95
2022-11-10T11:48:50.161Z,51.05
2022-11-10T11:52:31.683Z,54.78
2022-11-10T11:56:20.545Z,52.50
2022-11-10T12:00:16.252Z,50.85
2022-11-10T12:04:12.475Z,45.05
2022-11-10T12:07:56.134Z,46.45
2022-11-10T12:11:37.547Z,50.28
2022-11-10T12:15:22.039Z,47.10
2022-11-10T12:19:06.675Z,48.65
2022-11-10T12:22:46.346Z,50.33
2022-11-10T12:26:26.741Z,49.38
2022-11-10T12:30:06.561Z,42.83
2022-11-10T12:33:47.416Z,48.45
2022-11-10T12:37:30.684Z,47.13
2022-11-10T12:41:13.480Z,45.80
2022-11-10T12:44:58.815Z,44.85
2022-11-10T12:48:36.962Z,43.05
2022-11-10T12:52:18.538Z,44.43
2022-11-10T12:56:02.642Z,45.93
2022-11-10T12:59:43.023Z,42.98
2022-11-10T13:03:31.196Z,43.65
2022-11-10T13:07:24.130Z,41.80
2022-11-10T13:11:12.941Z,42.58
2022-11-10T13:14:51.329Z,45.90
2022-11-10T13:19:07.611Z,43.60
2022-11-10T13:22:50.408Z,46.98
2022-11-10T13:26:58.728Z,44.73
2022-11-10T13:31:00.536Z,45.43
2022-11-10T13:34:51.437Z,42.08
2022-11-10T13:38:46.736Z,42.98
2022-11-10T13:42:35.801Z,40.30
2022-11-10T13:46:15.607Z,44.80
2022-11-10T13:50:04.144Z,43.08
2022-11-10T13:53:46.245Z,45.63
2022-11-10T13:57:34.094Z,43.68
2022-11-10T14:01:34.703Z,43.38
2022-11-10T14:05:13.612Z,41.73
2022-11-10T14:08:58.379Z,45.23
2022-11-10T14:12:54.340Z,70.83
2022-11-10T14:16:32.074Z,50.03
2022-11-10T14:20:06.230Z,51.50
2022-11-10T14:23:46.632Z,46.95
2022-11-10T14:27:28.620Z,50.35
2022-11-10T14:31:05.104Z,46.30
2022-11-10T14:34:45.564Z,48.90
2022-11-10T14:38:29.250Z,44.85
2022-11-10T14:42:06.644Z,48.60
2022-11-10T14:45:42.106Z,46.50
2022-11-10T14:49:17.756Z,48.60
2022-11-10T14:52:56.818Z,44.90
2022-11-10T14:56:35.550Z,45.33
2022-11-10T15:00:15.017Z,44.33
2022-11-10T15:03:50.278Z,41.20
2022-11-10T15:07:25.751Z,40.15
2022-11-10T15:11:01.671Z,39.58
2022-11-10T15:14:50.723Z,36.63
2022-11-10T15:18:37.251Z,36.90
2022-11-10T15:22:24.505Z,44.15
2022-11-10T15:25:59.216Z,44.08
2022-11-10T15:32:54.104Z,39.83
2022-11-10T15:36:40.617Z,39.33
2022-11-10T15:40:43.948Z,41.85
2022-11-10T15:44:26.484Z,41.75
2022-11-10T15:48:01.349Z,41.90
2022-11-10T15:51:35.560Z,36.55
2022-11-10T15:55:10.070Z,36.35
2022-11-10T15:58:45.863Z,36.60
2022-11-10T16:02:33.160Z,34.48
2022-11-10T16:06:14.865Z,39.15
2022-11-10T16:09:48.771Z,35.93
2022-11-10T16:13:26.970Z,135.40
2022-11-10T16:17:03.091Z,50.40
2022-11-10T16:20:36.591Z,37.48
2022-11-10T16:24:10.929Z,37.53
2022-11-10T16:27:47.041Z,37.40
2022-11-10T16:31:22.905Z,36.30
2022-11-10T16:34:57.115Z,35.38
2022-11-10T16:38:33.918Z,39.65
2022-11-10T16:42:08.144Z,37.48
2022-11-10T16:45:44.649Z,39.80
2022-11-10T16:49:30.066Z,39.00
2022-11-10T16:53:05.055Z,37.43
2022-11-10T16:56:39.295Z,37.25
2022-11-10T17:00:17.061Z,38.23
2022-11-10T17:03:57.523Z,38.23
2022-11-10T17:07:34.776Z,37.45
2022-11-10T17:11:11.701Z,36.10
2022-11-10T17:14:45.850Z,39.35
2022-11-10T17:18:25.700Z,37.20
2022-11-10T17:22:01.097Z,38.63
2022-11-10T17:25:44.355Z,39.93
2022-11-10T17:29:38.016Z,38.45
2022-11-10T17:33:13.369Z,40.80
2022-11-10T17:36:47.394Z,43.13
2022-11-10T17:40:29.439Z,42.25
2022-11-10T17:44:03.799Z,40.00
2022-11-10T17:47:38.151Z,40.68
2022-11-10T17:51:19.421Z,37.60
2022-11-10T17:54:55.670Z,43.20
2022-11-10T17:58:31.473Z,39.15
2022-11-10T18:02:06.891Z,43.70
2022-11-10T18:05:46.830Z,46.70
2022-11-10T18:09:21.349Z,45.08
2022-11-10T18:12:55.422Z,44.75
2022-11-10T18:16:29.747Z,47.00
2022-11-10T18:20:03.753Z,47.53
2022-11-10T18:23:38.870Z,39.78
2022-11-10T18:27:57.395Z,40.33
2022-11-10T18:31:31.833Z,45.45
2022-11-10T18:35:17.538Z,47.15
2022-11-10T18:39:23.555Z,47.33
2022-11-10T18:43:08.527Z,45.48
2022-11-10T18:46:42.271Z,52.60
2022-11-10T18:50:20.759Z,47.75
2022-11-10T18:53:55.019Z,48.38
2022-11-10T18:57:29.762Z,50.88
2022-11-10T19:01:11.918Z,46.05
2022-11-10T19:04:49.672Z,48.00
2022-11-10T19:08:23.279Z,51.83
2022-11-10T19:11:57.611Z,50.40
2022-11-10T19:16:00.754Z,49.90
2022-11-10T19:19:34.788Z,51.18
2022-11-10T19:23:08.889Z,53.88
2022-11-10T19:26:42.664Z,51.28
2022-11-10T19:30:19.995Z,54.90
2022-11-10T19:33:56.135Z,54.68
2022-11-10T19:37:34.328Z,52.98
2022-11-10T19:41:08.212Z,50.28
2022-11-10T19:47:58.164Z,55.00
2022-11-10T19:51:33.833Z,58.63
2022-11-10T19:55:08.015Z,55.60
2022-11-10T19:58:44.987Z,59.13
2022-11-10T20:02:20.962Z,56.80
2022-11-10T20:05:56.979Z,56.95
2022-11-10T20:09:33.950Z,57.63
2022-11-10T20:13:09.656Z,60.10
2022-11-10T20:16:44.760Z,58.38
2022-11-10T20:20:21.418Z,65.93
2022-11-10T20:25:07.359Z,76.60
2022-11-10T20:29:22.819Z,60.60
2022-11-10T20:32:57.099Z,62.68
2022-11-10T20:36:38.123Z,62.33
2022-11-10T20:40:43.014Z,60.48
2022-11-10T20:47:08.778Z,60.45
2022-11-10T20:50:44.877Z,61.08
2022-11-10T20:54:19.628Z,60.15
2022-11-10T20:57:54.662Z,66.85
2022-11-10T21:01:29.073Z,61.25
2022-11-10T21:05:03.201Z,63.48
2022-11-10T21:08:38.640Z,61.40
2022-11-10T21:12:27.096Z,59.08
2022-11-10T21:16:07.083Z,68.90
2022-11-10T21:19:43.662Z,67.78
2022-11-10T21:23:18.104Z,68.60
2022-11-10T21:26:57.749Z,68.05
2022-11-10T21:30:32.288Z,61.93
2022-11-10T21:34:09.248Z,65.48
2022-11-10T21:37:44.300Z,65.05
2022-11-10T21:41:21.052Z,61.15
2022-11-10T21:44:56.736Z,59.13
2022-11-10T21:48:31.240Z,62.70
2022-11-10T21:52:05.424Z,57.70
2022-11-10T21:55:42.281Z,59.95
2022-11-10T21:59:16.719Z,60.80
2022-11-10T22:02:51.209Z,61.18
2022-11-10T22:06:28.755Z,57.35
2022-11-10T22:10:32.418Z,61.78
2022-11-10T22:17:39.304Z,56.20
2022-11-10T22:21:14.586Z,54.63
2022-11-10T22:24:48.680Z,56.73
2022-11-10T22:31:43.198Z,54.43
2022-11-10T22:35:20.446Z,55.05
2022-11-10T22:38:59.203Z,57.40
2022-11-10T22:42:45.063Z,60.10
2022-11-10T22:47:01.181Z,60.30
2022-11-10T22:50:34.983Z,59.60
2022-11-10T22:54:09.929Z,57.73
2022-11-10T22:57:43.830Z,59.43
2022-11-10T23:01:45.843Z,60.80
2022-11-10T23:05:20.462Z,61.88
2022-11-10T23:08:54.614Z,61.90
2022-11-10T23:12:28.983Z,77.65
2022-11-10T23:16:06.476Z,81.25
2022-11-10T23:19:40.353Z,77.25
2022-11-10T23:23:14.093Z,74.05
2022-11-10T23:26:48.027Z,73.00
2022-11-10T23:30:24.987Z,76.98
2022-11-10T23:34:01.476Z,76.00
2022-11-10T23:37:35.680Z,76.50
2022-11-10T23:41:11.833Z,72.80
2022-11-10T23:44:45.853Z,73.78
2022-11-10T23:48:20.575Z,71.63
2022-11-10T23:51:54.767Z,77.60
2022-11-10T23:55:28.536Z,74.53
2022-11-10T23:59:03.015Z,73.75
